Time;durP1;ratioP1;P1;durP2;ratioP2;P2;SDS_P1;SDS_P2;PMS_P1;PMS_P2;Temp;Humidity;BMP_temperature;BMP_pressure;BME280_temperature;BME280_humidity;BME280_pressure;Samples;Min_cycle;Max_cycle;Signal;HPM_P1;HPM_P2
2022/06/27 00:01:35;;;;;;;;;;;17.80;99.90;;;;;;5045853;28;20011;-73
2022/06/27 00:04:02;;;;;;;;;;;17.80;99.90;;;;;;5038653;28;19972;-73
2022/06/27 00:06:29;;;;;;;;;;;17.80;99.90;;;;;;5041220;28;19965;-73
2022/06/27 00:08:55;;;;;;;;;;;17.80;99.90;;;;;;5044270;28;19968;-74
2022/06/27 00:11:23;;;;;;;;;;;17.80;99.90;;;;;;5050462;28;19987;-74
2022/06/27 00:13:50;;;;;;;;;;;17.80;99.90;;;;;;5049050;28;20449;-75
2022/06/27 00:16:17;;;;;;;;;;;17.80;99.90;;;;;;5048478;28;19968;-74
2022/06/27 00:18:44;;;;;;;;;;;17.90;99.90;;;;;;5040878;28;19925;-74
2022/06/27 00:21:11;;;;;;;;;;;17.90;99.90;;;;;;5045376;28;20007;-73
2022/06/27 00:23:38;;;;;;;;;;;17.80;99.90;;;;;;5049630;28;20269;-74
2022/06/27 00:26:04;;;;;;;;;;;17.70;99.90;;;;;;5044728;28;19935;-73
2022/06/27 00:28:33;;;;;;;;;;;17.70;99.90;;;;;;5043864;28;20016;-73
2022/06/27 00:30:59;;;;;;;;;;;17.60;99.90;;;;;;5042908;28;20375;-74
2022/06/27 00:33:26;;;;;;;;;;;17.60;99.90;;;;;;5050157;28;20035;-74
2022/06/27 00:35:53;;;;;;;;;;;17.60;99.90;;;;;;5047596;28;19976;-73
2022/06/27 00:38:20;;;;;;;;;;;17.60;99.90;;;;;;5051188;28;19978;-74
2022/06/27 00:40:46;;;;;;;;;;;17.60;99.90;;;;;;5032417;28;20008;-74
2022/06/27 00:43:13;;;;;;;;;;;17.50;99.90;;;;;;5041229;28;19924;-73
2022/06/27 00:45:41;;;;;;;;;;;17.50;99.90;;;;;;5046069;28;19980;-74
2022/06/27 00:48:08;;;;;;;;;;;17.50;99.90;;;;;;5043471;28;19925;-75
2022/06/27 00:50:35;;;;;;;;;;;17.50;99.90;;;;;;5049280;28;20099;-73
2022/06/27 00:53:02;;;;;;;;;;;17.60;99.90;;;;;;5048585;28;19989;-73
2022/06/27 00:55:29;;;;;;;;;;;17.50;99.90;;;;;;5045509;28;19925;-73
2022/06/27 00:57:55;;;;;;;;;;;17.50;99.90;;;;;;5046884;28;20353;-73
2022/06/27 01:00:22;;;;;;;;;;;17.50;99.90;;;;;;5049432;28;20405;-73
2022/06/27 01:02:50;;;;;;;;;;;17.40;99.90;;;;;;5048558;28;19924;-73
2022/06/27 01:05:17;;;;;;;;;;;17.40;99.90;;;;;;5049646;28;20007;-73
2022/06/27 01:07:44;;;;;;;;;;;17.40;99.90;;;;;;5045902;28;20012;-73
2022/06/27 01:10:10;;;;;;;;;;;17.40;99.90;;;;;;5040401;28;19925;-74
2022/06/27 01:12:40;;;;;;;;;;;17.40;99.90;;;;;;5046059;28;20031;-73
2022/06/27 01:15:07;;;;;;;;;;;17.40;99.90;;;;;;5042703;28;19925;-73
2022/06/27 01:17:34;;;;;;;;;;;17.40;99.90;;;;;;5044612;28;19929;-74
2022/06/27 01:20:03;;;;;;;;;;;17.50;99.90;;;;;;5045548;28;19943;-73
2022/06/27 01:22:31;;;;;;;;;;;17.40;99.90;;;;;;5045965;28;19968;-73
2022/06/27 01:24:58;;;;;;;;;;;17.40;99.90;;;;;;5048459;28;19932;-74
2022/06/27 01:27:25;;;;;;;;;;;17.40;99.90;;;;;;5045212;28;19999;-74
2022/06/27 01:29:51;;;;;;;;;;;17.40;99.90;;;;;;5051608;28;19968;-74
2022/06/27 01:32:18;;;;;;;;;;;17.30;99.90;;;;;;5045253;28;19933;-73
2022/06/27 01:34:45;;;;;;;;;;;17.30;99.90;;;;;;5049956;28;20368;-74
2022/06/27 01:37:11;;;;;;;;;;;17.30;99.90;;;;;;5040598;28;19979;-74
2022/06/27 01:39:40;;;;;;;;;;;17.30;99.90;;;;;;5046231;28;19932;-74
2022/06/27 01:42:06;;;;;;;;;;;17.20;99.90;;;;;;5048198;28;19964;-74
2022/06/27 01:44:34;;;;;;;;;;;17.20;99.90;;;;;;5047165;28;20380;-73
2022/06/27 01:47:05;;;;;;;;;;;17.10;99.90;;;;;;5052528;28;19960;-74
2022/06/27 01:49:32;;;;;;;;;;;17.00;99.90;;;;;;5045541;28;19963;-73
2022/06/27 01:52:00;;;;;;;;;;;16.80;99.90;;;;;;5049921;28;20024;-73
2022/06/27 01:54:27;;;;;;;;;;;16.80;99.90;;;;;;5053223;28;19929;-73
2022/06/27 01:56:56;;;;;;;;;;;16.70;99.90;;;;;;5049112;28;20008;-73
2022/06/27 01:59:23;;;;;;;;;;;16.60;99.90;;;;;;5039920;28;20011;-73
2022/06/27 02:01:50;;;;;;;;;;;16.50;99.90;;;;;;5052622;28;19932;-74
2022/06/27 02:04:17;;;;;;;;;;;16.30;99.90;;;;;;5052254;28;20002;-73
2022/06/27 02:06:44;;;;;;;;;;;16.20;99.90;;;;;;5052391;28;20015;-74
2022/06/27 02:09:12;;;;;;;;;;;16.20;99.90;;;;;;5050249;28;20012;-73
2022/06/27 02:11:40;;;;;;;;;;;16.10;99.90;;;;;;5049902;28;20031;-73
2022/06/27 02:14:08;;;;;;;;;;;16.00;99.90;;;;;;5039530;28;19935;-74
2022/06/27 02:16:35;;;;;;;;;;;15.90;99.90;;;;;;5044461;28;20024;-75
2022/06/27 02:19:02;;;;;;;;;;;15.90;99.90;;;;;;5050681;28;19970;-74
2022/06/27 02:21:29;;;;;;;;;;;15.90;99.90;;;;;;5053826;28;19925;-73
2022/06/27 02:23:56;;;;;;;;;;;16.00;99.90;;;;;;5043306;28;19975;-74
2022/06/27 02:26:24;;;;;;;;;;;16.00;99.90;;;;;;5050734;28;19975;-75
2022/06/27 02:28:51;;;;;;;;;;;16.00;99.90;;;;;;5050814;28;20012;-75
2022/06/27 02:31:20;;;;;;;;;;;15.90;99.90;;;;;;5054081;28;19925;-75
2022/06/27 02:33:48;;;;;;;;;;;15.90;99.90;;;;;;5044503;28;20007;-75
2022/06/27 02:36:17;;;;;;;;;;;15.80;99.90;;;;;;5044028;28;20114;-74
2022/06/27 02:38:44;;;;;;;;;;;15.70;99.90;;;;;;5051105;28;19968;-74
2022/06/27 02:41:13;;;;;;;;;;;15.70;99.90;;;;;;5041115;28;19971;-73
2022/06/27 02:43:40;;;;;;;;;;;15.70;99.90;;;;;;5050576;28;20448;-73
2022/06/27 02:46:08;;;;;;;;;;;15.70;99.90;;;;;;5049933;28;20020;-73
2022/06/27 02:48:37;;;;;;;;;;;15.70;99.90;;;;;;5047835;28;19948;-73
2022/06/27 02:51:05;;;;;;;;;;;15.60;99.90;;;;;;5051687;28;20422;-73
2022/06/27 02:53:33;;;;;;;;;;;15.60;99.90;;;;;;5049447;28;20032;-73
2022/06/27 02:56:02;;;;;;;;;;;15.60;99.90;;;;;;5051282;28;20019;-73
2022/06/27 02:58:34;;;;;;;;;;;15.60;99.90;;;;;;5048124;28;20018;-73
2022/06/27 03:01:01;;;;;;;;;;;15.50;99.90;;;;;;5041921;28;19925;-73
2022/06/27 03:03:30;;;;;;;;;;;15.50;99.90;;;;;;5044856;28;20337;-73
2022/06/27 03:05:59;;;;;;;;;;;15.50;99.90;;;;;;5050582;28;19968;-74
2022/06/27 03:08:26;;;;;;;;;;;15.50;99.90;;;;;;5050620;28;19956;-73
2022/06/27 03:10:53;;;;;;;;;;;15.50;99.90;;;;;;5049660;28;20347;-73
2022/06/27 03:13:19;;;;;;;;;;;15.50;99.90;;;;;;5046180;28;20039;-74
2022/06/27 03:15:46;;;;;;;;;;;15.50;99.90;;;;;;5050122;28;20016;-74
2022/06/27 03:18:13;;;;;;;;;;;15.50;99.90;;;;;;5051688;28;19925;-74
2022/06/27 03:20:40;;;;;;;;;;;15.50;99.90;;;;;;5051346;28;19924;-74
2022/06/27 03:23:08;;;;;;;;;;;15.50;99.90;;;;;;5048947;28;20016;-74
2022/06/27 03:25:35;;;;;;;;;;;15.50;99.90;;;;;;5049393;28;19935;-74
2022/06/27 03:28:01;;;;;;;;;;;15.50;99.90;;;;;;5051611;28;19935;-73
2022/06/27 03:30:28;;;;;;;;;;;15.60;99.90;;;;;;5051810;28;20349;-74
2022/06/27 03:32:55;;;;;;;;;;;15.50;99.90;;;;;;5047488;28;20016;-74
2022/06/27 03:35:22;;;;;;;;;;;15.50;99.90;;;;;;5052520;28;20019;-74
2022/06/27 03:37:49;;;;;;;;;;;15.50;99.90;;;;;;5049844;28;20016;-74
2022/06/27 03:40:17;;;;;;;;;;;15.50;99.90;;;;;;5051171;28;19979;-74
2022/06/27 03:42:43;;;;;;;;;;;15.50;99.90;;;;;;5050527;28;20015;-74
2022/06/27 03:45:11;;;;;;;;;;;15.50;99.90;;;;;;5045676;28;19980;-73
2022/06/27 03:47:45;;;;;;;;;;;15.50;99.90;;;;;;5046535;28;20391;-74
2022/06/27 03:50:13;;;;;;;;;;;15.50;99.90;;;;;;5043581;28;20303;-74
2022/06/27 03:52:40;;;;;;;;;;;15.40;99.90;;;;;;5048701;28;20383;-74
2022/06/27 03:55:07;;;;;;;;;;;15.40;99.90;;;;;;5052401;28;19924;-74
2022/06/27 03:57:35;;;;;;;;;;;15.40;99.90;;;;;;5048382;28;19983;-74
2022/06/27 04:00:02;;;;;;;;;;;15.40;99.90;;;;;;5051652;28;19924;-76
2022/06/27 04:02:29;;;;;;;;;;;15.40;99.90;;;;;;5048447;28;20342;-74
2022/06/27 04:04:56;;;;;;;;;;;15.50;99.90;;;;;;5040273;28;20380;-74
2022/06/27 04:07:23;;;;;;;;;;;15.60;99.90;;;;;;5042899;28;20479;-74
2022/06/27 04:09:49;;;;;;;;;;;15.60;99.90;;;;;;5044106;28;19967;-73
2022/06/27 04:12:16;;;;;;;;;;;15.50;99.90;;;;;;5036245;28;19939;-72
2022/06/27 04:14:44;;;;;;;;;;;15.50;99.90;;;;;;5046796;28;19978;-73
2022/06/27 04:17:11;;;;;;;;;;;15.50;99.90;;;;;;5048593;28;20008;-73
2022/06/27 04:19:37;;;;;;;;;;;15.50;99.90;;;;;;5051419;28;20012;-73
2022/06/27 04:22:04;;;;;;;;;;;15.50;99.90;;;;;;5045009;28;19932;-74
2022/06/27 04:24:31;;;;;;;;;;;15.50;99.90;;;;;;5049554;28;20488;-73
2022/06/27 04:26:58;;;;;;;;;;;15.50;99.90;;;;;;5048479;28;19947;-73
2022/06/27 04:29:26;;;;;;;;;;;15.50;99.90;;;;;;5043517;28;19979;-73
2022/06/27 04:31:54;;;;;;;;;;;15.50;99.90;;;;;;5043059;28;19924;-74
2022/06/27 04:34:21;;;;;;;;;;;15.50;99.90;;;;;;5050345;28;20039;-73
2022/06/27 04:36:48;;;;;;;;;;;15.40;99.90;;;;;;5050741;28;20034;-74
2022/06/27 04:39:17;;;;;;;;;;;15.50;99.90;;;;;;5047959;28;19968;-73
2022/06/27 04:41:45;;;;;;;;;;;15.50;99.90;;;;;;5041001;28;19932;-73
2022/06/27 04:44:12;;;;;;;;;;;15.50;99.90;;;;;;5048985;28;19925;-73
2022/06/27 04:46:38;;;;;;;;;;;15.50;99.90;;;;;;5047836;28;20008;-73
2022/06/27 04:49:07;;;;;;;;;;;15.50;99.90;;;;;;5049011;28;20359;-74
2022/06/27 04:51:34;;;;;;;;;;;15.50;99.90;;;;;;5044633;28;19929;-74
2022/06/27 04:54:01;;;;;;;;;;;15.60;99.90;;;;;;5046604;28;19924;-73
2022/06/27 04:56:29;;;;;;;;;;;15.60;99.90;;;;;;5038328;28;19929;-73
2022/06/27 04:58:56;;;;;;;;;;;15.80;99.90;;;;;;5041955;28;20045;-73
2022/06/27 05:01:23;;;;;;;;;;;15.80;99.90;;;;;;5044249;28;20105;-73
2022/06/27 05:03:49;;;;;;;;;;;16.10;99.90;;;;;;5042519;28;20372;-74
2022/06/27 05:06:18;;;;;;;;;;;16.30;99.90;;;;;;5051618;28;19924;-74
2022/06/27 05:08:45;;;;;;;;;;;16.30;99.90;;;;;;5040829;28;19925;-74
2022/06/27 05:11:12;;;;;;;;;;;16.30;99.90;;;;;;5042256;28;20016;-72
2022/06/27 05:13:38;;;;;;;;;;;16.30;99.90;;;;;;5048308;28;19925;-72
2022/06/27 05:16:05;;;;;;;;;;;16.30;99.90;;;;;;5050166;28;19964;-72
2022/06/27 05:18:32;;;;;;;;;;;16.30;99.90;;;;;;5043748;28;19964;-72
2022/06/27 05:20:59;;;;;;;;;;;16.40;99.90;;;;;;5038721;28;19937;-72
2022/06/27 05:23:27;;;;;;;;;;;16.40;99.90;;;;;;5042202;28;20084;-72
2022/06/27 05:25:54;;;;;;;;;;;16.40;99.90;;;;;;5036382;28;20027;-73
2022/06/27 05:28:21;;;;;;;;;;;16.50;99.90;;;;;;5037167;28;19952;-72
2022/06/27 05:30:48;;;;;;;;;;;16.50;99.90;;;;;;5039536;28;19925;-72
2022/06/27 05:33:15;;;;;;;;;;;16.50;99.90;;;;;;5039469;28;19939;-71
2022/06/27 05:35:42;;;;;;;;;;;16.40;99.90;;;;;;5037877;28;20074;-72
2022/06/27 05:38:09;;;;;;;;;;;16.40;99.90;;;;;;5037267;28;20352;-72
2022/06/27 05:40:37;;;;;;;;;;;16.40;99.90;;;;;;5039298;28;19929;-72
2022/06/27 05:43:04;;;;;;;;;;;16.40;99.90;;;;;;5039025;28;20015;-73
2022/06/27 05:45:31;;;;;;;;;;;16.60;99.90;;;;;;5045299;28;21959;-72
2022/06/27 05:48:01;;;;;;;;;;;16.70;99.90;;;;;;5037616;28;19929;-72
2022/06/27 05:50:28;;;;;;;;;;;16.80;99.90;;;;;;5038420;28;19953;-72
2022/06/27 05:52:56;;;;;;;;;;;16.90;99.90;;;;;;5042408;28;20031;-72
2022/06/27 05:55:23;;;;;;;;;;;17.00;99.90;;;;;;5043010;28;19929;-72
2022/06/27 05:57:52;;;;;;;;;;;17.00;99.90;;;;;;5039981;28;20440;-72
2022/06/27 06:00:19;;;;;;;;;;;17.00;99.90;;;;;;5039405;28;19925;-72
2022/06/27 06:02:46;;;;;;;;;;;17.00;99.90;;;;;;5040489;28;19994;-70
2022/06/27 06:05:14;;;;;;;;;;;17.00;99.90;;;;;;5037741;28;19929;-72
2022/06/27 06:07:42;;;;;;;;;;;17.00;99.90;;;;;;5039986;28;20346;-72
2022/06/27 06:10:09;;;;;;;;;;;16.90;99.90;;;;;;5040854;28;20312;-72
2022/06/27 06:12:35;;;;;;;;;;;16.90;99.90;;;;;;5036256;28;19979;-72
2022/06/27 06:15:04;;;;;;;;;;;16.90;99.90;;;;;;5032885;28;19972;-72
2022/06/27 06:17:33;;;;;;;;;;;17.00;99.90;;;;;;5036439;28;19943;-70
2022/06/27 06:20:00;;;;;;;;;;;17.00;99.90;;;;;;5045410;28;19925;-71
2022/06/27 06:22:27;;;;;;;;;;;17.00;99.90;;;;;;5035936;28;19929;-72
2022/06/27 06:24:54;;;;;;;;;;;17.10;99.90;;;;;;5039541;28;19925;-72
2022/06/27 06:27:21;;;;;;;;;;;17.20;99.90;;;;;;5042082;28;19926;-72
2022/06/27 06:29:48;;;;;;;;;;;17.20;99.90;;;;;;5047950;28;20308;-73
2022/06/27 06:32:17;;;;;;;;;;;17.30;99.90;;;;;;5043916;28;19937;-72
2022/06/27 06:34:43;;;;;;;;;;;17.30;99.90;;;;;;5043000;28;20011;-72
2022/06/27 06:37:10;;;;;;;;;;;17.20;99.90;;;;;;5039738;28;19936;-72
2022/06/27 06:39:37;;;;;;;;;;;16.90;99.90;;;;;;5041942;28;19936;-74
2022/06/27 06:42:04;;;;;;;;;;;16.90;99.90;;;;;;5050380;28;19948;-72
2022/06/27 06:44:31;;;;;;;;;;;16.90;99.90;;;;;;5050550;28;20340;-72
2022/06/27 06:46:58;;;;;;;;;;;17.10;99.90;;;;;;5042556;28;19929;-72
2022/06/27 06:49:26;;;;;;;;;;;17.30;99.90;;;;;;5043235;28;20003;-72
2022/06/27 06:51:53;;;;;;;;;;;17.50;99.90;;;;;;5039304;28;20421;-72
2022/06/27 06:54:20;;;;;;;;;;;17.60;99.90;;;;;;5040784;28;19925;-72
2022/06/27 06:56:48;;;;;;;;;;;17.70;99.90;;;;;;5044391;28;20211;-72
2022/06/27 06:59:15;;;;;;;;;;;17.60;99.90;;;;;;5041525;28;19925;-72
2022/06/27 07:01:43;;;;;;;;;;;17.60;99.90;;;;;;5042946;28;19952;-72
2022/06/27 07:04:11;;;;;;;;;;;17.60;99.90;;;;;;5043416;28;20376;-72
2022/06/27 07:06:40;;;;;;;;;;;17.70;99.90;;;;;;5043068;28;19951;-72
2022/06/27 07:09:07;;;;;;;;;;;17.70;99.90;;;;;;5039326;28;19967;-72
2022/06/27 07:11:36;;;;;;;;;;;17.60;99.90;;;;;;5044922;28;19939;-71
2022/06/27 07:14:03;;;;;;;;;;;17.60;99.90;;;;;;5049853;28;20422;-72
2022/06/27 07:16:29;;;;;;;;;;;17.60;99.90;;;;;;5041652;28;19924;-72
2022/06/27 07:18:57;;;;;;;;;;;17.60;99.90;;;;;;5046176;28;20007;-72
2022/06/27 07:21:25;;;;;;;;;;;17.60;99.90;;;;;;5042232;28;19972;-72
2022/06/27 07:23:54;;;;;;;;;;;17.60;99.90;;;;;;5040192;28;19925;-73
2022/06/27 07:26:22;;;;;;;;;;;17.70;99.90;;;;;;5040739;28;20364;-72
2022/06/27 07:28:49;;;;;;;;;;;17.70;99.90;;;;;;5044068;28;19971;-72
2022/06/27 07:31:16;;;;;;;;;;;17.80;99.90;;;;;;5045276;28;19929;-73
2022/06/27 07:33:45;;;;;;;;;;;17.90;99.90;;;;;;5043427;28;19975;-72
2022/06/27 07:36:14;;;;;;;;;;;18.00;99.90;;;;;;5042489;28;20259;-72
2022/06/27 07:38:41;;;;;;;;;;;18.10;99.90;;;;;;5040937;28;20285;-72
2022/06/27 07:41:09;;;;;;;;;;;18.20;99.90;;;;;;5044050;28;20048;-72
2022/06/27 07:43:37;;;;;;;;;;;18.20;99.90;;;;;;5041152;28;20060;-72
2022/06/27 07:46:04;;;;;;;;;;;18.20;99.90;;;;;;5042416;28;19925;-74
2022/06/27 07:48:31;;;;;;;;;;;18.30;99.90;;;;;;5036642;28;19925;-73
2022/06/27 07:50:58;;;;;;;;;;;18.40;99.90;;;;;;5042671;28;20355;-73
2022/06/27 07:53:26;;;;;;;;;;;18.70;99.90;;;;;;5037305;28;19932;-73
2022/06/27 07:55:53;;;;;;;;;;;18.90;99.90;;;;;;5040734;28;20008;-73
2022/06/27 07:58:24;;;;;;;;;;;19.10;99.90;;;;;;5042173;28;19964;-72
2022/06/27 08:00:51;;;;;;;;;;;19.20;99.90;;;;;;5045524;28;20419;-72
2022/06/27 08:03:39;;;;;;;;;;;19.20;99.90;;;;;;5039335;28;20362;-72
2022/06/27 08:06:08;;;;;;;;;;;19.10;99.90;;;;;;5041732;28;20401;-72
2022/06/27 08:08:36;;;;;;;;;;;18.90;99.90;;;;;;5024500;28;19956;-72
2022/06/27 08:11:03;;;;;;;;;;;18.70;99.90;;;;;;5046922;28;20070;-72
2022/06/27 08:13:32;;;;;;;;;;;18.70;99.90;;;;;;5039375;28;20396;-72
2022/06/27 08:15:59;;;;;;;;;;;18.60;99.90;;;;;;5037378;28;19964;-72
2022/06/27 08:18:26;;;;;;;;;;;18.50;99.90;;;;;;5045060;28;20400;-71
2022/06/27 08:20:53;;;;;;;;;;;18.60;99.90;;;;;;5044952;28;19925;-73
2022/06/27 08:23:20;;;;;;;;;;;18.50;99.90;;;;;;5043673;28;19925;-73
2022/06/27 08:25:47;;;;;;;;;;;18.50;99.90;;;;;;5045366;28;19956;-72
2022/06/27 08:28:15;;;;;;;;;;;18.50;99.90;;;;;;5044951;28;20283;-73
2022/06/27 08:30:44;;;;;;;;;;;18.60;99.90;;;;;;5040693;28;19932;-73
2022/06/27 08:33:12;;;;;;;;;;;18.50;99.90;;;;;;5045444;28;19935;-72
2022/06/27 08:35:39;;;;;;;;;;;18.50;99.90;;;;;;5051608;28;19931;-73
2022/06/27 08:38:06;;;;;;;;;;;18.50;99.90;;;;;;5042987;28;19925;-73
2022/06/27 08:40:33;;;;;;;;;;;18.60;99.90;;;;;;5042347;28;20406;-73
2022/06/27 08:43:00;;;;;;;;;;;18.70;99.90;;;;;;5042116;28;20019;-73
2022/06/27 08:45:28;;;;;;;;;;;18.70;99.90;;;;;;5045635;28;20113;-73
2022/06/27 08:47:58;;;;;;;;;;;18.80;99.90;;;;;;5043153;28;19982;-73
2022/06/27 08:50:25;;;;;;;;;;;18.90;99.90;;;;;;5045388;28;20430;-72
2022/06/27 08:52:54;;;;;;;;;;;18.90;99.90;;;;;;5045521;28;19939;-72
2022/06/27 08:55:21;;;;;;;;;;;18.90;99.90;;;;;;5045962;28;20347;-72
2022/06/27 08:57:47;;;;;;;;;;;19.00;99.90;;;;;;5045698;28;19924;-72
2022/06/27 09:00:15;;;;;;;;;;;19.10;99.90;;;;;;5040520;28;19956;-71
2022/06/27 09:02:43;;;;;;;;;;;19.00;99.90;;;;;;5032522;28;20174;-72
2022/06/27 09:05:21;;;;;;;;;;;18.90;99.90;;;;;;5043829;28;20012;-72
2022/06/27 09:07:49;;;;;;;;;;;18.90;99.90;;;;;;5042342;28;20380;-73
2022/06/27 09:10:26;;;;;;;;;;;18.90;99.90;;;;;;5034778;28;19932;-73
2022/06/27 09:13:00;;;;;;;;;;;18.90;99.90;;;;;;5040932;28;19925;-71
2022/06/27 09:15:29;;;;;;;;;;;18.90;99.90;;;;;;5037194;28;20024;-73
2022/06/27 09:18:00;;;;;;;;;;;18.90;99.90;;;;;;5041419;28;19925;-73
2022/06/27 09:20:44;;;;;;;;;;;18.80;99.90;;;;;;5046958;28;19960;-71
2022/06/27 09:23:26;;;;;;;;;;;18.70;99.90;;;;;;5043941;28;19925;-73
2022/06/27 09:25:58;;;;;;;;;;;18.70;99.90;;;;;;5050319;28;19931;-73
2022/06/27 09:28:36;;;;;;;;;;;18.70;99.90;;;;;;5048712;28;19924;-73
2022/06/27 09:31:02;;;;;;;;;;;18.60;99.90;;;;;;5051638;28;20284;-74
2022/06/27 09:33:31;;;;;;;;;;;18.50;99.90;;;;;;5047608;28;19956;-74
2022/06/27 09:36:08;;;;;;;;;;;18.50;99.90;;;;;;5047083;28;19925;-74
2022/06/27 09:38:35;;;;;;;;;;;18.50;99.90;;;;;;5050168;28;19925;-73
2022/06/27 09:41:02;;;;;;;;;;;18.50;99.90;;;;;;5051783;28;19979;-69
2022/06/27 09:43:30;;;;;;;;;;;18.50;99.90;;;;;;5048145;28;19956;-73
2022/06/27 09:45:58;;;;;;;;;;;18.70;99.90;;;;;;5046710;28;19960;-74
2022/06/27 09:48:26;;;;;;;;;;;18.60;99.90;;;;;;5043200;28;20307;-72
2022/06/27 09:50:53;;;;;;;;;;;18.60;99.90;;;;;;5031835;28;19958;-72
2022/06/27 09:53:26;;;;;;;;;;;18.60;99.90;;;;;;5042249;28;20028;-73
2022/06/27 09:55:53;;;;;;;;;;;18.70;99.90;;;;;;5048849;28;19994;-72
2022/06/27 09:58:20;;;;;;;;;;;18.90;99.90;;;;;;5046254;28;19925;-72
2022/06/27 10:00:48;;;;;;;;;;;18.80;99.90;;;;;;5049591;28;19940;-73
2022/06/27 10:03:15;;;;;;;;;;;18.90;99.90;;;;;;5046980;28;19924;-73
2022/06/27 10:05:44;;;;;;;;;;;18.90;99.90;;;;;;5049386;28;20011;-72
2022/06/27 10:08:11;;;;;;;;;;;18.70;99.90;;;;;;5050609;28;20358;-73
2022/06/27 10:10:52;;;;;;;;;;;18.50;99.90;;;;;;5046256;28;19932;-72
2022/06/27 10:13:21;;;;;;;;;;;18.40;99.90;;;;;;5048894;28;20387;-72
2022/06/27 10:15:48;;;;;;;;;;;18.20;99.90;;;;;;5050858;28;20241;-72
2022/06/27 10:18:15;;;;;;;;;;;18.10;99.90;;;;;;5049934;28;20015;-73
2022/06/27 10:20:47;;;;;;;;;;;18.10;99.90;;;;;;5053893;28;20019;-73
2022/06/27 10:23:25;;;;;;;;;;;18.10;99.90;;;;;;5052053;28;19931;-72
2022/06/27 10:25:53;;;;;;;;;;;18.10;99.90;;;;;;5050475;28;19978;-72
2022/06/27 10:28:22;;;;;;;;;;;18.30;99.90;;;;;;5050136;28;20028;-72
2022/06/27 10:30:49;;;;;;;;;;;18.40;99.90;;;;;;5050776;28;19978;-72
2022/06/27 10:33:35;;;;;;;;;;;18.40;99.90;;;;;;5053050;28;19925;-72
2022/06/27 10:36:04;;;;;;;;;;;18.40;99.90;;;;;;5050385;28;19935;-72
2022/06/27 10:38:32;;;;;;;;;;;18.40;99.90;;;;;;5046276;28;19947;-72
2022/06/27 10:41:00;;;;;;;;;;;18.40;99.90;;;;;;5050740;28;19931;-72
2022/06/27 10:43:47;;;;;;;;;;;18.40;99.90;;;;;;5052232;28;19968;-72
2022/06/27 10:46:33;;;;;;;;;;;18.50;99.90;;;;;;5052517;28;19925;-71
2022/06/27 10:48:59;;;;;;;;;;;18.80;99.90;;;;;;5052818;28;19924;-74
2022/06/27 10:51:27;;;;;;;;;;;18.80;99.90;;;;;;5053471;28;20021;-74
2022/06/27 10:54:10;;;;;;;;;;;18.80;99.90;;;;;;5051809;28;19962;-72
2022/06/27 10:56:39;;;;;;;;;;;19.00;99.90;;;;;;5049765;28;19924;-75
2022/06/27 10:59:29;;;;;;;;;;;19.00;99.90;;;;;;5049659;28;19931;-76
2022/06/27 11:02:11;;;;;;;;;;;19.00;99.90;;;;;;5048383;28;20031;-72
2022/06/27 11:04:39;;;;;;;;;;;19.00;99.90;;;;;;5048779;28;19928;-75
2022/06/27 11:07:06;;;;;;;;;;;18.70;99.90;;;;;;5051783;28;19925;-75
2022/06/27 11:09:37;;;;;;;;;;;18.50;99.90;;;;;;5051654;28;20386;-74
2022/06/27 11:12:04;;;;;;;;;;;18.40;99.90;;;;;;5049449;28;20008;-74
2022/06/27 11:14:42;;;;;;;;;;;18.30;99.90;;;;;;5052172;28;19970;-74
2022/06/27 11:17:26;;;;;;;;;;;18.30;99.90;;;;;;5051153;28;20067;-73
2022/06/27 11:20:07;;;;;;;;;;;18.30;99.90;;;;;;5034446;28;19936;-74
2022/06/27 11:22:34;;;;;;;;;;;18.40;99.90;;;;;;5035861;28;20016;-74
2022/06/27 11:25:01;;;;;;;;;;;18.40;99.90;;;;;;5051538;28;19979;-73
2022/06/27 11:27:42;;;;;;;;;;;18.50;99.90;;;;;;5047183;28;19931;-74
2022/06/27 11:32:56;;;;;;;;;;;18.50;99.90;;;;;;5051967;28;20423;-73
2022/06/27 11:35:22;;;;;;;;;;;18.40;99.90;;;;;;5051415;28;19968;-75
2022/06/27 11:37:49;;;;;;;;;;;18.10;99.90;;;;;;5051151;28;19925;-74
2022/06/27 11:40:16;;;;;;;;;;;18.00;99.90;;;;;;5048611;28;19932;-75
2022/06/27 11:42:43;;;;;;;;;;;18.10;99.90;;;;;;5050939;28;20402;-74
2022/06/27 11:45:12;;;;;;;;;;;18.10;99.90;;;;;;5050813;28;19935;-76
2022/06/27 11:47:40;;;;;;;;;;;18.10;99.90;;;;;;5050688;28;20376;-74
2022/06/27 11:50:08;;;;;;;;;;;18.00;99.90;;;;;;5051066;28;19931;-74
2022/06/27 11:52:35;;;;;;;;;;;18.00;99.90;;;;;;5050305;28;20388;-75
2022/06/27 11:55:07;;;;;;;;;;;17.90;99.90;;;;;;5032920;28;20016;-75
2022/06/27 11:57:33;;;;;;;;;;;17.80;99.90;;;;;;5046271;28;19933;-77
2022/06/27 12:00:01;;;;;;;;;;;17.20;99.90;;;;;;5040921;28;20015;-77
2022/06/27 12:02:31;;;;;;;;;;;16.70;99.90;;;;;;5042105;28;20184;-77
2022/06/27 12:05:07;;;;;;;;;;;16.40;99.90;;;;;;5049596;28;19980;-77
2022/06/27 12:07:48;;;;;;;;;;;16.10;99.90;;;;;;5049592;28;19928;-79
2022/06/27 12:10:15;;;;;;;;;;;15.90;99.90;;;;;;5046859;28;20367;-80
2022/06/27 12:12:44;;;;;;;;;;;15.70;99.90;;;;;;5048455;28;20350;-75
2022/06/27 12:15:20;;;;;;;;;;;15.60;99.90;;;;;;5047933;28;19932;-75
2022/06/27 12:17:55;;;;;;;;;;;15.50;99.90;;;;;;5046074;28;19964;-74
2022/06/27 12:20:25;;;;;;;;;;;15.50;99.90;;;;;;5032779;28;20628;-74
2022/06/27 12:22:51;;;;;;;;;;;15.20;99.90;;;;;;5045540;28;20144;-74
2022/06/27 12:25:18;;;;;;;;;;;14.90;99.90;;;;;;5048550;28;20024;-74
2022/06/27 12:27:45;;;;;;;;;;;14.80;99.90;;;;;;5044323;28;20007;-74
2022/06/27 12:30:12;;;;;;;;;;;14.70;99.90;;;;;;5051093;28;19925;-74
2022/06/27 12:32:39;;;;;;;;;;;14.60;99.90;;;;;;5048213;28;20391;-74
2022/06/27 12:35:08;;;;;;;;;;;14.50;99.90;;;;;;5048012;28;19933;-74
2022/06/27 12:37:35;;;;;;;;;;;14.50;99.90;;;;;;5046739;28;20358;-75
2022/06/27 12:40:02;;;;;;;;;;;14.50;99.90;;;;;;5050627;28;20016;-74
2022/06/27 12:42:28;;;;;;;;;;;14.60;99.90;;;;;;5048902;28;19986;-74
2022/06/27 12:44:55;;;;;;;;;;;14.80;99.90;;;;;;5045814;28;19931;-72
2022/06/27 12:47:22;;;;;;;;;;;14.80;99.90;;;;;;5046251;28;20055;-73
2022/06/27 12:49:48;;;;;;;;;;;14.70;99.90;;;;;;5049358;28;19925;-72
2022/06/27 12:52:17;;;;;;;;;;;14.70;99.90;;;;;;5045807;28;19987;-73
2022/06/27 12:54:43;;;;;;;;;;;14.80;99.90;;;;;;5049066;28;20399;-73
2022/06/27 12:57:13;;;;;;;;;;;14.90;99.90;;;;;;5046925;28;19933;-73
2022/06/27 12:59:40;;;;;;;;;;;15.00;99.90;;;;;;5044343;28;19982;-73
2022/06/27 13:02:07;;;;;;;;;;;15.20;99.90;;;;;;5046735;28;20439;-75
2022/06/27 13:04:34;;;;;;;;;;;15.50;99.90;;;;;;5051131;28;19955;-70
2022/06/27 13:07:00;;;;;;;;;;;15.90;99.90;;;;;;5049225;28;19932;-71
2022/06/27 13:09:29;;;;;;;;;;;16.10;99.90;;;;;;5042362;28;20383;-72
2022/06/27 13:11:55;;;;;;;;;;;16.30;99.90;;;;;;5048419;28;20020;-71
2022/06/27 13:14:22;;;;;;;;;;;16.10;99.90;;;;;;5050522;28;19929;-72
2022/06/27 13:16:50;;;;;;;;;;;15.60;99.90;;;;;;5049424;28;19925;-72
2022/06/27 13:19:17;;;;;;;;;;;15.30;99.90;;;;;;5041591;28;19970;-72
2022/06/27 13:21:44;;;;;;;;;;;15.40;99.90;;;;;;5047453;28;20404;-73
2022/06/27 13:24:10;;;;;;;;;;;15.60;99.90;;;;;;5046703;28;19928;-72
2022/06/27 13:26:38;;;;;;;;;;;16.00;99.90;;;;;;5046934;28;20031;-72
2022/06/27 13:29:05;;;;;;;;;;;16.20;99.90;;;;;;5047953;28;20012;-72
2022/06/27 13:31:32;;;;;;;;;;;17.00;99.90;;;;;;5049132;28;20011;-71
2022/06/27 13:33:58;;;;;;;;;;;16.90;99.90;;;;;;5048639;28;20032;-72
2022/06/27 13:36:26;;;;;;;;;;;16.60;99.90;;;;;;5049011;28;19924;-72
2022/06/27 13:38:52;;;;;;;;;;;16.80;99.90;;;;;;5051808;28;20019;-72
2022/06/27 13:41:19;;;;;;;;;;;16.70;99.90;;;;;;5053653;28;19978;-72
2022/06/27 13:43:47;;;;;;;;;;;16.80;99.90;;;;;;5051288;28;19925;-72
2022/06/27 13:46:14;;;;;;;;;;;16.90;99.90;;;;;;5054160;28;20404;-71
2022/06/27 13:48:40;;;;;;;;;;;17.40;99.90;;;;;;5052854;28;19939;-72
2022/06/27 13:51:07;;;;;;;;;;;17.60;99.90;;;;;;5051824;28;19972;-72
2022/06/27 13:53:35;;;;;;;;;;;17.10;99.90;;;;;;5052148;28;19972;-72
2022/06/27 13:56:02;;;;;;;;;;;17.10;99.90;;;;;;5051942;28;19981;-72
2022/06/27 13:58:29;;;;;;;;;;;17.90;99.90;;;;;;5050326;28;20007;-72
2022/06/27 14:00:57;;;;;;;;;;;18.60;99.90;;;;;;5054299;28;19924;-73
2022/06/27 14:03:24;;;;;;;;;;;18.50;99.90;;;;;;5046117;28;19933;-72
2022/06/27 14:05:51;;;;;;;;;;;18.70;99.90;;;;;;5048866;28;20327;-72
2022/06/27 14:08:17;;;;;;;;;;;18.90;99.90;;;;;;5038198;28;19951;-72
2022/06/27 14:10:56;;;;;;;;;;;19.00;99.90;;;;;;5043828;28;20387;-72
2022/06/27 14:13:23;;;;;;;;;;;19.20;99.90;;;;;;5044452;28;19939;-72
2022/06/27 14:15:49;;;;;;;;;;;19.40;99.80;;;;;;5053996;28;20023;-71
2022/06/27 14:18:17;;;;;;;;;;;19.40;99.40;;;;;;5051570;28;20330;-72
2022/06/27 14:20:44;;;;;;;;;;;19.60;98.40;;;;;;5052545;28;19979;-72
2022/06/27 14:23:11;;;;;;;;;;;19.60;97.80;;;;;;5054245;28;20016;-72
2022/06/27 14:25:38;;;;;;;;;;;19.80;97.90;;;;;;5052276;28;19925;-72